Time;durP1;ratioP1;P1;durP2;ratioP2;P2;SDS_P1;SDS_P2;PMS_P1;PMS_P2;Temp;Humidity;BMP_temperature;BMP_pressure;BME280_temperature;BME280_humidity;BME280_pressure;Samples;Min_cycle;Max_cycle;Signal;HPM_P1;HPM_P2
2023/01/23 00:00:32;;;;;;;;;;;0.40;99.90;;;;;;5051859;28;19996;-77
2023/01/23 00:02:58;;;;;;;;;;;0.40;99.90;;;;;;5051963;28;20364;-77
2023/01/23 00:05:25;;;;;;;;;;;0.40;99.90;;;;;;5052472;28;20003;-77
2023/01/23 00:07:51;;;;;;;;;;;0.40;99.90;;;;;;5079350;28;20235;-77
2023/01/23 00:10:17;;;;;;;;;;;0.40;99.90;;;;;;5051919;28;19919;-77
2023/01/23 00:12:44;;;;;;;;;;;0.40;99.90;;;;;;5040463;28;20282;-77
2023/01/23 00:15:11;;;;;;;;;;;0.40;99.90;;;;;;5040208;28;19965;-78
2023/01/23 00:17:37;;;;;;;;;;;0.40;99.90;;;;;;5037076;28;19913;-77
2023/01/23 00:20:03;;;;;;;;;;;0.30;99.90;;;;;;5063964;28;19915;-76
2023/01/23 00:22:29;;;;;;;;;;;0.40;99.90;;;;;;5061607;28;19916;-77
2023/01/23 00:24:55;;;;;;;;;;;0.40;99.90;;;;;;5041078;28;19995;-78
2023/01/23 00:27:21;;;;;;;;;;;0.40;99.90;;;;;;5041444;28;19909;-77
2023/01/23 00:29:47;;;;;;;;;;;0.40;99.90;;;;;;5035470;28;19905;-77
2023/01/23 00:32:13;;;;;;;;;;;0.30;99.90;;;;;;5038741;28;19920;-78
2023/01/23 00:34:39;;;;;;;;;;;0.30;99.90;;;;;;5055956;28;19956;-78
2023/01/23 00:37:06;;;;;;;;;;;0.30;99.90;;;;;;5053919;28;19916;-77
2023/01/23 00:39:32;;;;;;;;;;;0.40;99.90;;;;;;5054410;28;19909;-78
2023/01/23 00:41:58;;;;;;;;;;;0.30;99.90;;;;;;5046821;28;20278;-78
2023/01/23 00:44:24;;;;;;;;;;;0.30;99.90;;;;;;5036838;28;19905;-78
2023/01/23 00:46:50;;;;;;;;;;;0.30;99.90;;;;;;5049610;28;19908;-77
2023/01/23 00:49:16;;;;;;;;;;;0.30;99.90;;;;;;5069960;28;20111;-78
2023/01/23 00:51:43;;;;;;;;;;;0.40;99.90;;;;;;5054796;28;19904;-77
2023/01/23 00:54:09;;;;;;;;;;;0.40;99.90;;;;;;5055650;28;19919;-77
2023/01/23 00:56:35;;;;;;;;;;;0.40;99.90;;;;;;5054778;28;20370;-78
2023/01/23 00:59:01;;;;;;;;;;;0.40;99.90;;;;;;5054844;28;19952;-78
2023/01/23 01:01:30;;;;;;;;;;;0.30;99.90;;;;;;5036845;28;19935;-77
2023/01/23 01:03:56;;;;;;;;;;;0.30;99.90;;;;;;5058105;28;20318;-77
2023/01/23 01:06:22;;;;;;;;;;;0.30;99.90;;;;;;5064954;28;19920;-78
2023/01/23 01:08:49;;;;;;;;;;;0.40;99.90;;;;;;5067258;28;20274;-77
2023/01/23 01:11:16;;;;;;;;;;;0.40;99.90;;;;;;5052407;28;19909;-78
2023/01/23 01:13:42;;;;;;;;;;;0.40;99.90;;;;;;5055343;28;19908;-78
2023/01/23 01:16:08;;;;;;;;;;;0.40;99.90;;;;;;5054840;28;19908;-77
2023/01/23 01:18:35;;;;;;;;;;;0.30;99.90;;;;;;5051285;28;20685;-77
2023/01/23 01:21:04;;;;;;;;;;;0.30;99.90;;;;;;5067754;28;20338;-78
2023/01/23 01:23:30;;;;;;;;;;;0.30;99.90;;;;;;5051359;28;19915;-77
2023/01/23 01:25:59;;;;;;;;;;;0.30;99.90;;;;;;5048986;28;20007;-77
2023/01/23 01:28:27;;;;;;;;;;;0.20;99.90;;;;;;5054787;28;19919;-78
2023/01/23 01:30:53;;;;;;;;;;;0.30;99.90;;;;;;5053969;28;19912;-78
2023/01/23 01:33:19;;;;;;;;;;;0.20;99.90;;;;;;5063343;28;20075;-78
2023/01/23 01:35:44;;;;;;;;;;;0.20;99.90;;;;;;5038372;28;19919;-78
2023/01/23 01:38:11;;;;;;;;;;;0.20;99.90;;;;;;5054499;28;19913;-77
2023/01/23 01:40:37;;;;;;;;;;;0.20;99.90;;;;;;5054484;28;19912;-78
2023/01/23 01:43:05;;;;;;;;;;;0.20;99.90;;;;;;5068667;28;19909;-78
2023/01/23 01:45:49;;;;;;;;;;;0.20;99.90;;;;;;5053289;28;20362;-78
2023/01/23 01:48:16;;;;;;;;;;;0.20;99.90;;;;;;5054479;28;20210;-78
2023/01/23 01:50:42;;;;;;;;;;;0.20;99.90;;;;;;5055930;28;19908;-78
2023/01/23 01:53:09;;;;;;;;;;;0.20;99.90;;;;;;5054570;28;19915;-78
2023/01/23 01:55:35;;;;;;;;;;;0.20;99.90;;;;;;5053536;28;20377;-77
2023/01/23 01:58:01;;;;;;;;;;;0.20;99.90;;;;;;5054337;28;20250;-79
2023/01/23 02:00:28;;;;;;;;;;;0.20;99.90;;;;;;5052764;28;19924;-78
2023/01/23 02:03:02;;;;;;;;;;;0.30;99.90;;;;;;5054624;28;20003;-78
2023/01/23 02:05:42;;;;;;;;;;;0.30;99.90;;;;;;5051308;28;19915;-78
2023/01/23 02:08:09;;;;;;;;;;;0.30;99.90;;;;;;5068701;28;19983;-78
2023/01/23 02:10:37;;;;;;;;;;;0.30;99.90;;;;;;5069203;28;20362;-78
2023/01/23 02:13:22;;;;;;;;;;;0.30;99.90;;;;;;5053114;28;19911;-78
2023/01/23 02:15:50;;;;;;;;;;;0.30;99.90;;;;;;5052672;28;20358;-77
2023/01/23 02:18:16;;;;;;;;;;;0.40;99.90;;;;;;5053352;28;19931;-78
2023/01/23 02:20:42;;;;;;;;;;;0.40;99.90;;;;;;5058140;28;20428;-78
2023/01/23 02:23:11;;;;;;;;;;;0.40;99.90;;;;;;5034533;28;19909;-78
2023/01/23 02:25:43;;;;;;;;;;;0.40;99.90;;;;;;5037882;28;19909;-77
2023/01/23 02:28:11;;;;;;;;;;;0.40;99.90;;;;;;5037474;28;19909;-78
2023/01/23 02:30:39;;;;;;;;;;;0.50;99.90;;;;;;5065030;28;19943;-77
2023/01/23 02:33:09;;;;;;;;;;;0.50;99.90;;;;;;5052137;28;19916;-78
2023/01/23 02:35:35;;;;;;;;;;;0.50;99.90;;;;;;5052787;28;20081;-77
2023/01/23 02:38:08;;;;;;;;;;;0.50;99.90;;;;;;5052259;28;19919;-78
2023/01/23 02:40:36;;;;;;;;;;;0.50;99.90;;;;;;5052489;28;20372;-78
2023/01/23 02:43:04;;;;;;;;;;;0.50;99.90;;;;;;5051980;28;20342;-79
2023/01/23 02:45:30;;;;;;;;;;;0.50;99.90;;;;;;5047142;28;19909;-77
2023/01/23 02:47:56;;;;;;;;;;;0.60;99.90;;;;;;5053841;28;20269;-77
2023/01/23 02:50:22;;;;;;;;;;;0.60;99.90;;;;;;5051829;28;19917;-78
2023/01/23 02:52:49;;;;;;;;;;;0.60;99.90;;;;;;5035000;28;19909;-78
2023/01/23 02:55:16;;;;;;;;;;;0.60;99.90;;;;;;5047558;28;19913;-78
2023/01/23 02:57:44;;;;;;;;;;;0.60;99.90;;;;;;5053663;28;19920;-78
2023/01/23 03:00:18;;;;;;;;;;;0.60;99.90;;;;;;5053032;28;19916;-77
2023/01/23 03:02:46;;;;;;;;;;;0.60;99.90;;;;;;5052875;28;20381;-78
2023/01/23 03:05:12;;;;;;;;;;;0.60;99.90;;;;;;5065925;28;20318;-78
2023/01/23 03:07:38;;;;;;;;;;;0.60;99.90;;;;;;5045734;28;19956;-77
2023/01/23 03:10:04;;;;;;;;;;;0.60;99.90;;;;;;5051913;28;19909;-80
2023/01/23 03:12:30;;;;;;;;;;;0.60;99.90;;;;;;5052572;28;19932;-77
2023/01/23 03:14:57;;;;;;;;;;;0.60;99.90;;;;;;5051132;28;19920;-77
2023/01/23 03:17:24;;;;;;;;;;;0.60;99.90;;;;;;5066941;28;19912;-78
2023/01/23 03:19:51;;;;;;;;;;;0.60;99.90;;;;;;5050779;28;19916;-78
2023/01/23 03:22:17;;;;;;;;;;;0.60;99.90;;;;;;5066925;28;19908;-76
2023/01/23 03:24:43;;;;;;;;;;;0.60;99.90;;;;;;5051387;28;19909;-77
2023/01/23 03:27:09;;;;;;;;;;;0.60;99.90;;;;;;5043312;28;20286;-76
2023/01/23 03:32:25;;;;;;;;;;;0.60;99.90;;;;;;5051569;28;19917;-76
2023/01/23 03:34:53;;;;;;;;;;;0.60;99.90;;;;;;5032502;28;20305;-76
2023/01/23 03:37:21;;;;;;;;;;;0.60;99.90;;;;;;5063894;28;20277;-76
2023/01/23 03:42:34;;;;;;;;;;;0.60;99.90;;;;;;5052642;28;20369;-76
2023/01/23 03:45:02;;;;;;;;;;;0.60;99.20;;;;;;5049170;28;19912;-76
2023/01/23 03:47:32;;;;;;;;;;;0.60;97.10;;;;;;5065016;28;19924;-76
2023/01/23 03:49:59;;;;;;;;;;;0.60;95.20;;;;;;5038131;28;19909;-76
2023/01/23 03:52:25;;;;;;;;;;;0.70;92.20;;;;;;5049097;28;20357;-76
2023/01/23 03:54:51;;;;;;;;;;;0.60;91.00;;;;;;5033289;28;19909;-76
2023/01/23 03:57:17;;;;;;;;;;;0.60;90.10;;;;;;5061160;28;19913;-76
2023/01/23 04:00:00;;;;;;;;;;;0.60;87.20;;;;;;5063622;28;20278;-76
2023/01/23 04:02:40;;;;;;;;;;;0.60;83.70;;;;;;5053523;28;20273;-76
2023/01/23 04:05:06;;;;;;;;;;;0.60;79.50;;;;;;5035866;28;19920;-77
2023/01/23 04:07:32;;;;;;;;;;;0.70;76.20;;;;;;5053711;28;19912;-76
2023/01/23 04:09:58;;;;;;;;;;;0.60;76.50;;;;;;5064153;28;20272;-76
2023/01/23 04:12:24;;;;;;;;;;;0.70;76.30;;;;;;5030898;28;19905;-76
2023/01/23 04:14:50;;;;;;;;;;;0.60;74.60;;;;;;5050495;28;19920;-76
2023/01/23 04:17:16;;;;;;;;;;;0.60;73.90;;;;;;5050730;28;19940;-77
2023/01/23 04:19:42;;;;;;;;;;;0.60;73.00;;;;;;5052613;28;19916;-76
2023/01/23 04:22:09;;;;;;;;;;;0.60;68.30;;;;;;5050406;28;19908;-79
2023/01/23 04:24:44;;;;;;;;;;;0.60;66.90;;;;;;5027295;28;20312;-78
2023/01/23 04:27:10;;;;;;;;;;;0.60;65.60;;;;;;5043905;28;20358;-78
2023/01/23 04:29:36;;;;;;;;;;;0.60;65.70;;;;;;5051597;28;20270;-77
2023/01/23 04:32:03;;;;;;;;;;;0.60;64.90;;;;;;5021869;28;19913;-78
2023/01/23 04:34:32;;;;;;;;;;;0.60;65.40;;;;;;5050372;28;19920;-77
2023/01/23 04:36:59;;;;;;;;;;;0.60;65.10;;;;;;5049604;28;19920;-77
2023/01/23 04:39:26;;;;;;;;;;;0.60;62.00;;;;;;5039379;28;19919;-78
2023/01/23 04:41:52;;;;;;;;;;;0.60;60.90;;;;;;5026042;28;19912;-77
2023/01/23 04:44:45;;;;;;;;;;;0.60;59.00;;;;;;5056613;28;19916;-77
2023/01/23 04:47:29;;;;;;;;;;;0.60;58.50;;;;;;5054452;28;19919;-78
2023/01/23 04:49:56;;;;;;;;;;;0.60;59.90;;;;;;5053067;28;19913;-78
2023/01/23 04:52:22;;;;;;;;;;;0.60;60.80;;;;;;5050942;28;20000;-80
2023/01/23 04:54:56;;;;;;;;;;;0.50;60.00;;;;;;5044306;28;19917;-79
2023/01/23 04:57:22;;;;;;;;;;;0.60;62.00;;;;;;5049174;28;19924;-78
2023/01/23 04:59:54;;;;;;;;;;;0.50;63.60;;;;;;5050414;28;19932;-78
2023/01/23 05:02:21;;;;;;;;;;;0.50;65.50;;;;;;5037346;28;20293;-77
2023/01/23 05:04:47;;;;;;;;;;;0.50;66.20;;;;;;5036787;28;19908;-78
2023/01/23 05:07:13;;;;;;;;;;;0.50;68.90;;;;;;5043806;28;19908;-78
2023/01/23 05:09:47;;;;;;;;;;;0.50;72.50;;;;;;5047334;28;19909;-78
2023/01/23 05:12:15;;;;;;;;;;;0.50;77.50;;;;;;5037123;28;19930;-78
2023/01/23 05:14:41;;;;;;;;;;;0.50;82.80;;;;;;5054059;28;19919;-77
2023/01/23 05:17:07;;;;;;;;;;;0.50;85.90;;;;;;5052793;28;20333;-77
2023/01/23 05:19:50;;;;;;;;;;;0.50;88.00;;;;;;5053633;28;19916;-77
2023/01/23 05:22:16;;;;;;;;;;;0.50;89.70;;;;;;5053434;28;19909;-78
2023/01/23 05:24:43;;;;;;;;;;;0.50;88.20;;;;;;5060580;28;19909;-78
2023/01/23 05:27:09;;;;;;;;;;;0.50;88.40;;;;;;5046368;28;20262;-77
2023/01/23 05:29:39;;;;;;;;;;;0.50;87.40;;;;;;5053803;28;19908;-76
2023/01/23 05:32:13;;;;;;;;;;;0.50;85.60;;;;;;5053105;28;19927;-80
2023/01/23 05:34:43;;;;;;;;;;;0.50;83.40;;;;;;5055404;28;19913;-81
2023/01/23 05:37:19;;;;;;;;;;;0.50;85.20;;;;;;5049799;28;19916;-80
2023/01/23 05:39:49;;;;;;;;;;;0.50;85.70;;;;;;5051195;28;19915;-80
2023/01/23 05:42:15;;;;;;;;;;;0.50;84.70;;;;;;5051014;28;19915;-79
2023/01/23 05:44:59;;;;;;;;;;;0.50;84.10;;;;;;5053971;28;19938;-79
2023/01/23 05:47:30;;;;;;;;;;;0.50;84.40;;;;;;5059261;28;19909;-80
2023/01/23 05:49:57;;;;;;;;;;;0.50;85.60;;;;;;5053715;28;19920;-80
2023/01/23 05:52:27;;;;;;;;;;;0.40;88.80;;;;;;5068746;28;19913;-80
2023/01/23 05:54:53;;;;;;;;;;;0.50;90.00;;;;;;5054015;28;19936;-81
2023/01/23 05:57:20;;;;;;;;;;;0.50;90.50;;;;;;5054643;28;20266;-80
2023/01/23 06:00:05;;;;;;;;;;;0.40;90.30;;;;;;5053387;28;19924;-80
2023/01/23 06:02:59;;;;;;;;;;;0.50;90.80;;;;;;5064329;28;19912;-79
2023/01/23 06:05:28;;;;;;;;;;;0.50;88.40;;;;;;5049702;28;19909;-80
2023/01/23 06:08:01;;;;;;;;;;;0.50;84.00;;;;;;5051813;28;19909;-79
2023/01/23 06:10:28;;;;;;;;;;;0.50;83.10;;;;;;5052945;28;19908;-80
2023/01/23 06:12:55;;;;;;;;;;;0.50;84.20;;;;;;5051078;28;19909;-82
2023/01/23 06:15:21;;;;;;;;;;;0.50;83.90;;;;;;5053106;28;19916;-83
2023/01/23 06:17:49;;;;;;;;;;;0.50;83.30;;;;;;5049217;28;20023;-81
2023/01/23 06:20:17;;;;;;;;;;;0.50;79.90;;;;;;5051357;28;19917;-82
2023/01/23 06:22:46;;;;;;;;;;;0.50;77.20;;;;;;5035423;28;19967;-79
2023/01/23 06:25:13;;;;;;;;;;;0.50;77.20;;;;;;5028267;28;20358;-79
2023/01/23 06:27:40;;;;;;;;;;;0.50;70.70;;;;;;5032556;28;20342;-79
2023/01/23 06:30:08;;;;;;;;;;;0.50;67.00;;;;;;5046867;28;19909;-79
2023/01/23 06:32:43;;;;;;;;;;;0.50;66.80;;;;;;5035471;28;20362;-79
2023/01/23 06:35:10;;;;;;;;;;;0.50;64.70;;;;;;5032783;28;19921;-79
2023/01/23 06:37:40;;;;;;;;;;;0.50;62.00;;;;;;5050603;28;19913;-79
2023/01/23 06:40:11;;;;;;;;;;;0.50;59.60;;;;;;5034766;28;19909;-79
2023/01/23 06:42:38;;;;;;;;;;;0.60;54.50;;;;;;5033671;28;19909;-79
2023/01/23 06:45:05;;;;;;;;;;;0.60;51.10;;;;;;5050975;28;19932;-79
2023/01/23 06:47:31;;;;;;;;;;;0.60;49.40;;;;;;5029862;28;19909;-79
2023/01/23 06:50:00;;;;;;;;;;;0.60;47.70;;;;;;5031349;28;19909;-81
2023/01/23 06:52:29;;;;;;;;;;;0.60;47.50;;;;;;5031227;28;19908;-81
2023/01/23 06:54:55;;;;;;;;;;;0.60;46.70;;;;;;5033990;28;19913;-82
2023/01/23 06:57:21;;;;;;;;;;;0.60;46.30;;;;;;5030657;28;19923;-79
2023/01/23 06:59:49;;;;;;;;;;;0.50;43.90;;;;;;5032850;28;19923;-82
2023/01/23 07:02:17;;;;;;;;;;;0.50;44.80;;;;;;5048722;28;19916;-82
2023/01/23 07:04:49;;;;;;;;;;;0.50;44.40;;;;;;5032435;28;19920;-82
2023/01/23 07:07:15;;;;;;;;;;;0.50;46.20;;;;;;5044999;28;19915;-82
2023/01/23 07:09:41;;;;;;;;;;;0.50;49.60;;;;;;5052084;28;19904;-82
2023/01/23 07:12:19;;;;;;;;;;;0.50;46.60;;;;;;5049936;28;19934;-82
2023/01/23 07:14:45;;;;;;;;;;;0.60;48.00;;;;;;5051301;28;20245;-80
2023/01/23 07:17:16;;;;;;;;;;;0.50;48.10;;;;;;5052283;28;19932;-81
2023/01/23 07:19:42;;;;;;;;;;;0.60;49.90;;;;;;5064793;28;19968;-81
2023/01/23 07:22:11;;;;;;;;;;;0.50;49.90;;;;;;5054074;28;19915;-81
2023/01/23 07:24:37;;;;;;;;;;;0.50;51.80;;;;;;5058316;28;20340;-82
2023/01/23 07:27:03;;;;;;;;;;;0.60;53.80;;;;;;5050617;28;19908;-82
2023/01/23 07:29:29;;;;;;;;;;;0.60;54.50;;;;;;5041047;28;19909;-81
2023/01/23 07:31:57;;;;;;;;;;;0.60;54.50;;;;;;5043969;28;19960;-82
2023/01/23 07:34:23;;;;;;;;;;;0.60;54.60;;;;;;5048954;28;19916;-82
2023/01/23 07:36:49;;;;;;;;;;;0.60;53.30;;;;;;5052773;28;19913;-82
2023/01/23 07:39:15;;;;;;;;;;;0.60;52.00;;;;;;5045901;28;19982;-83
2023/01/23 07:41:41;;;;;;;;;;;0.60;50.70;;;;;;5048873;28;19909;-82
2023/01/23 07:44:12;;;;;;;;;;;0.60;48.90;;;;;;5050899;28;19920;-82
2023/01/23 07:46:38;;;;;;;;;;;0.70;50.30;;;;;;5051793;28;19919;-82
2023/01/23 07:49:04;;;;;;;;;;;0.70;49.60;;;;;;5049770;28;19992;-78
2023/01/23 07:51:30;;;;;;;;;;;0.70;47.60;;;;;;5058504;28;19915;-78
2023/01/23 07:53:56;;;;;;;;;;;0.70;44.90;;;;;;5054119;28;20028;-80
2023/01/23 07:56:22;;;;;;;;;;;0.80;39.80;;;;;;5045865;28;19959;-78
2023/01/23 07:58:49;;;;;;;;;;;0.80;37.00;;;;;;5068824;28;19972;-81
2023/01/23 08:01:16;;;;;;;;;;;0.80;32.80;;;;;;5051896;28;20282;-80
2023/01/23 08:03:42;;;;;;;;;;;0.80;28.30;;;;;;5061861;28;19991;-81
2023/01/23 08:06:08;;;;;;;;;;;0.90;27.20;;;;;;5049894;28;19920;-82
2023/01/23 08:08:34;;;;;;;;;;;0.90;26.00;;;;;;5048511;28;19924;-80
2023/01/23 08:11:02;;;;;;;;;;;0.90;24.10;;;;;;5046818;28;19912;-80
2023/01/23 08:13:28;;;;;;;;;;;1.00;24.80;;;;;;5051223;28;19909;-81
2023/01/23 08:15:56;;;;;;;;;;;1.00;22.70;;;;;;5051457;28;19971;-82
2023/01/23 08:18:22;;;;;;;;;;;1.00;18.20;;;;;;5042871;28;20373;-82
2023/01/23 08:20:52;;;;;;;;;;;1.00;17.40;;;;;;5062527;28;20377;-81
2023/01/23 08:23:18;;;;;;;;;;;1.10;16.10;;;;;;5050427;28;19913;-83
2023/01/23 08:25:44;;;;;;;;;;;1.10;16.00;;;;;;5052760;28;20274;-81
2023/01/23 08:28:10;;;;;;;;;;;1.20;15.30;;;;;;5052100;28;19908;-82
2023/01/23 08:30:36;;;;;;;;;;;1.30;11.10;;;;;;5042392;28;19909;-82
2023/01/23 08:33:03;;;;;;;;;;;1.30;9.20;;;;;;5052860;28;19913;-80
2023/01/23 08:35:29;;;;;;;;;;;1.40;8.20;;;;;;5055271;28;19913;-82
2023/01/23 08:37:55;;;;;;;;;;;1.30;1.00;;;;;;5066974;28;19913;-81
2023/01/23 08:40:21;;;;;;;;;;;1.40;1.00;;;;;;5056166;28;19986;-82
2023/01/23 08:42:47;;;;;;;;;;;1.40;1.00;;;;;;5060576;28;19913;-81
2023/01/23 08:45:13;;;;;;;;;;;1.40;1.00;;;;;;5053392;28;19920;-81
2023/01/23 08:47:39;;;;;;;;;;;1.40;1.00;;;;;;5052781;28;20014;-83
2023/01/23 08:50:05;;;;;;;;;;;1.30;1.00;;;;;;5070848;28;19917;-81
2023/01/23 08:52:33;;;;;;;;;;;1.40;1.00;;;;;;5046719;28;20274;-78
2023/01/23 08:54:59;;;;;;;;;;;1.40;1.00;;;;;;5054886;28;19916;-79
2023/01/23 08:57:25;;;;;;;;;;;1.30;1.00;;;;;;5053888;28;19912;-78
2023/01/23 08:59:51;;;;;;;;;;;1.40;1.00;;;;;;5041456;28;19971;-79
2023/01/23 09:02:17;;;;;;;;;;;1.40;1.00;;;;;;5055514;28;19917;-79
2023/01/23 09:04:43;;;;;;;;;;;1.50;1.00;;;;;;5060833;28;19908;-79
2023/01/23 09:07:09;;;;;;;;;;;1.60;1.00;;;;;;5064026;28;19923;-77
2023/01/23 09:09:35;;;;;;;;;;;1.50;1.00;;;;;;5063163;28;19964;-79
2023/01/23 09:12:01;;;;;;;;;;;1.50;1.00;;;;;;5071423;28;19908;-79
2023/01/23 09:14:27;;;;;;;;;;;1.60;1.00;;;;;;5070940;28;19919;-79
2023/01/23 09:16:53;;;;;;;;;;;1.70;1.00;;;;;;5060908;28;20380;-78
2023/01/23 09:19:19;;;;;;;;;;;1.60;1.00;;;;;;5057155;28;19913;-78
2023/01/23 09:21:46;;;;;;;;;;;1.60;1.00;;;;;;5057752;28;19915;-81
2023/01/23 09:24:12;;;;;;;;;;;1.60;1.00;;;;;;5053760;28;19909;-81
2023/01/23 09:26:38;;;;;;;;;;;1.70;1.00;;;;;;5059809;28;19912;-82
2023/01/23 09:29:04;;;;;;;;;;;1.70;1.00;;;;;;5077126;28;19893;-82
2023/01/23 09:31:30;;;;;;;;;;;1.70;1.00;;;;;;5043522;28;19916;-81
2023/01/23 09:33:56;;;;;;;;;;;1.70;1.00;;;;;;5050663;28;19913;-81
2023/01/23 09:36:22;;;;;;;;;;;1.70;1.00;;;;;;5057599;28;19904;-79
2023/01/23 09:38:48;;;;;;;;;;;1.80;1.00;;;;;;5079806;28;19940;-77
2023/01/23 09:41:23;;;;;;;;;;;1.80;1.00;;;;;;5065952;28;19908;-79
2023/01/23 09:43:58;;;;;;;;;;;1.90;1.00;;;;;;5064778;28;19923;-80
2023/01/23 09:46:24;;;;;;;;;;;2.00;1.00;;;;;;5068388;28;19923;-81
2023/01/23 09:48:59;;;;;;;;;;;2.10;1.00;;;;;;5076705;28;19909;-80
2023/01/23 09:51:25;;;;;;;;;;;2.30;1.00;;;;;;5061781;28;19897;-81
2023/01/23 09:53:53;;;;;;;;;;;2.40;1.00;;;;;;5054893;28;19919;-81
2023/01/23 09:56:40;;;;;;;;;;;2.30;1.00;;;;;;5069602;28;19901;-81
2023/01/23 09:59:06;;;;;;;;;;;2.30;1.00;;;;;;5060088;28;19924;-81
2023/01/23 10:01:32;;;;;;;;;;;2.20;1.00;;;;;;5048593;28;19916;-80
2023/01/23 10:03:59;;;;;;;;;;;2.30;1.00;;;;;;5075125;28;19899;-81
2023/01/23 10:06:27;;;;;;;;;;;2.20;1.00;;;;;;5055612;28;19908;-81
2023/01/23 10:09:03;;;;;;;;;;;2.30;1.00;;;;;;5041374;28;19908;-81
2023/01/23 10:11:42;;;;;;;;;;;2.30;1.00;;;;;;5050001;28;19913;-83
2023/01/23 10:14:34;;;;;;;;;;;2.30;1.00;;;;;;5047964;28;19909;-82
2023/01/23 10:17:19;;;;;;;;;;;2.40;1.00;;;;;;5050139;28;19924;-80
2023/01/23 10:19:56;;;;;;;;;;;2.40;1.00;;;;;;5031458;28;19920;-81
2023/01/23 10:22:28;;;;;;;;;;;2.30;1.00;;;;;;5054424;28;19916;-78
2023/01/23 10:24:55;;;;;;;;;;;2.40;1.00;;;;;;5044751;28;19908;-79
2023/01/23 10:27:23;;;;;;;;;;;2.30;1.00;;;;;;5053488;28;19920;-79
2023/01/23 10:29:55;;;;;;;;;;;2.30;1.00;;;;;;5033440;28;19916;-81
2023/01/23 10:32:21;;;;;;;;;;;2.30;1.00;;;;;;5046618;28;19919;-79
2023/01/23 10:34:55;;;;;;;;;;;2.30;1.00;;;;;;5049075;28;19912;-82
2023/01/23 10:37:36;;;;;;;;;;;2.30;1.00;;;;;;5051767;28;19917;-80
2023/01/23 10:43:14;;;;;;;;;;;2.40;1.00;;;;;;5049898;28;19932;-85
2023/01/23 10:45:41;;;;;;;;;;;2.40;1.00;;;;;;5049883;28;19908;-80
2023/01/23 10:48:25;;;;;;;;;;;2.30;1.00;;;;;;5051597;28;19904;-80
2023/01/23 10:50:51;;;;;;;;;;;2.40;1.00;;;;;;5051881;28;19909;-79
2023/01/23 10:53:21;;;;;;;;;;;2.40;1.00;;;;;;5052664;28;19912;-79
2023/01/23 10:55:47;;;;;;;;;;;2.40;1.00;;;;;;5048515;28;19912;-79
2023/01/23 10:58:28;;;;;;;;;;;2.40;1.00;;;;;;5051494;28;19913;-80
2023/01/23 11:00:54;;;;;;;;;;;2.50;1.00;;;;;;5046944;28;19924;-79
2023/01/23 11:03:20;;;;;;;;;;;2.60;1.00;;;;;;5049718;28;19912;-80
2023/01/23 11:06:06;;;;;;;;;;;2.60;1.00;;;;;;5050465;28;20038;-79
2023/01/23 11:08:35;;;;;;;;;;;2.60;1.00;;;;;;5045067;28;19932;-79
2023/01/23 11:11:16;;;;;;;;;;;2.60;1.00;;;;;;5043496;28;19912;-80
2023/01/23 11:13:43;;;;;;;;;;;2.60;1.00;;;;;;5047681;28;19916;-78
2023/01/23 11:16:13;;;;;;;;;;;2.60;1.00;;;;;;5050040;28;19919;-80
2023/01/23 11:18:43;;;;;;;;;;;2.70;1.00;;;;;;5045882;28;19913;-80
2023/01/23 11:21:19;;;;;;;;;;;2.60;1.00;;;;;;5051660;28;19908;-78
2023/01/23 11:23:45;;;;;;;;;;;2.60;1.00;;;;;;5044662;28;19916;-80
2023/01/23 11:26:30;;;;;;;;;;;2.50;1.00;;;;;;5035652;28;20352;-80
2023/01/23 11:28:56;;;;;;;;;;;2.50;1.00;;;;;;5022579;28;19909;-79
2023/01/23 11:31:25;;;;;;;;;;;2.50;1.00;;;;;;5060360;28;19943;-77
2023/01/23 11:34:09;;;;;;;;;;;2.40;1.00;;;;;;5052120;28;19908;-79
2023/01/23 11:36:35;;;;;;;;;;;2.40;1.00;;;;;;5050426;28;19913;-79
2023/01/23 11:39:04;;;;;;;;;;;2.40;1.00;;;;;;5044055;28;19920;-82
2023/01/23 11:41:32;;;;;;;;;;;2.50;1.00;;;;;;5052247;28;19912;-80
2023/01/23 11:43:59;;;;;;;;;;;2.60;1.00;;;;;;5052093;28;19909;-80
2023/01/23 11:46:42;;;;;;;;;;;2.60;1.00;;;;;;5051172;28;19913;-80
2023/01/23 11:49:16;;;;;;;;;;;2.60;1.00;;;;;;5053018;28;19913;-80
2023/01/23 11:52:01;;;;;;;;;;;2.60;1.00;;;;;;5051852;28;19909;-79
2023/01/23 11:54:42;;;;;;;;;;;2.60;1.00;;;;;;5051826;28;19908;-79
2023/01/23 11:57:27;;;;;;;;;;;2.60;1.00;;;;;;5047089;28;19924;-80
2023/01/23 11:59:53;;;;;;;;;;;2.60;1.00;;;;;;5033467;28;19924;-80
2023/01/23 12:02:32;;;;;;;;;;;2.60;1.00;;;;;;5044925;28;20366;-81
2023/01/23 12:05:17;;;;;;;;;;;2.60;1.00;;;;;;5051258;28;20404;-81
2023/01/23 12:08:09;;;;;;;;;;;2.60;1.00;;;;;;5043231;28;20292;-79
2023/01/23 12:10:41;;;;;;;;;;;2.60;1.00;;;;;;5054815;28;19919;-80
2023/01/23 12:13:07;;;;;;;;;;;2.60;1.00;;;;;;5057026;28;20011;-80
2023/01/23 12:15:53;;;;;;;;;;;2.60;1.00;;;;;;5056895;28;19976;-80
2023/01/23 12:18:32;;;;;;;;;;;2.70;1.00;;;;;;5051551;28;19909;-80
2023/01/23 12:21:07;;;;;;;;;;;2.70;1.00;;;;;;5060681;28;20369;-79
2023/01/23 12:23:46;;;;;;;;;;;2.70;1.00;;;;;;5061203;28;20007;-80
2023/01/23 12:26:14;;;;;;;;;;;2.70;1.00;;;;;;5045027;28;19908;-80
2023/01/23 12:28:54;;;;;;;;;;;2.80;1.00;;;;;;5054562;28;19905;-79
2023/01/23 12:31:28;;;;;;;;;;;3.00;1.00;;;;;;5055902;28;19908;-79
2023/01/23 12:34:06;;;;;;;;;;;3.00;1.00;;;;;;5058338;28;19909;-79
2023/01/23 12:36:37;;;;;;;;;;;2.90;1.00;;;;;;5056674;28;19951;-80
2023/01/23 12:39:06;;;;;;;;;;;2.90;1.00;;;;;;5055537;28;19912;-78
2023/01/23 12:41:41;;;;;;;;;;;2.90;1.00;;;;;;5054600;28;19917;-77
2023/01/23 12:44:15;;;;;;;;;;;2.90;1.00;;;;;;5059369;28;19908;-79
2023/01/23 12:46:55;;;;;;;;;;;3.00;1.00;;;;;;5059553;28;19960;-78
2023/01/23 12:49:27;;;;;;;;;;;3.00;1.00;;;;;;5054658;28;19912;-79
2023/01/23 12:52:06;;;;;;;;;;;3.00;1.00;;;;;;5050066;28;19908;-79
2023/01/23 12:54:35;;;;;;;;;;;3.00;1.00;;;;;;5043803;28;19908;-80
2023/01/23 12:57:03;;;;;;;;;;;3.10;1.00;;;;;;5056727;28;19924;-80
2023/01/23 12:59:40;;;;;;;;;;;3.10;1.00;;;;;;5049730;28;19909;-79
2023/01/23 13:02:21;;;;;;;;;;;3.10;1.00;;;;;;5040542;28;19916;-80
2023/01/23 13:04:53;;;;;;;;;;;3.00;1.00;;;;;;5043403;28;19909;-79
2023/01/23 13:07:19;;;;;;;;;;;3.10;1.00;;;;;;5060024;28;19920;-79
2023/01/23 13:10:03;;;;;;;;;;;3.10;1.00;;;;;;5053867;28;19908;-80
2023/01/23 13:12:29;;;;;;;;;;;3.10;1.00;;;;;;5053325;28;19912;-80
2023/01/23 13:15:14;;;;;;;;;;;3.10;1.00;;;;;;5054756;28;19909;-81
2023/01/23 13:17:43;;;;;;;;;;;3.10;1.00;;;;;;5040510;28;19917;-80
2023/01/23 13:23:22;;;;;;;;;;;3.00;1.00;;;;;;5050848;28;20405;-81
2023/01/23 13:25:49;;;;;;;;;;;3.00;1.00;;;;;;5054873;28;19912;-80
2023/01/23 13:28:38;;;;;;;;;;;2.90;1.00;;;;;;5055729;28;19937;-80
2023/01/23 13:31:04;;;;;;;;;;;2.90;1.00;;;;;;5031832;28;19916;-80
2023/01/23 13:33:30;;;;;;;;;;;2.90;1.00;;;;;;5054679;28;20270;-82
2023/01/23 13:35:58;;;;;;;;;;;2.90;1.00;;;;;;5058391;28;19913;-82
2023/01/23 13:38:36;;;;;;;;;;;2.90;1.00;;;;;;5067869;28;19920;-80
2023/01/23 13:41:10;;;;;;;;;;;2.90;1.00;;;;;;5065956;28;19920;-79
2023/01/23 13:43:48;;;;;;;;;;;2.80;1.00;;;;;;5065960;28;19908;-80
2023/01/23 13:46:17;;;;;;;;;;;2.80;1.00;;;;;;5065133;28;19916;-80
2023/01/23 13:51:39;;;;;;;;;;;2.80;1.00;;;;;;5052554;28;19909;-80
2023/01/23 13:56:58;;;;;;;;;;;2.80;1.00;;;;;;5055084;28;19920;-79
2023/01/23 13:59:24;;;;;;;;;;;2.80;1.00;;;;;;5051537;28;19909;-78
2023/01/23 14:10:18;;;;;;;;;;;3.00;1.00;;;;;;5054382;28;19909;-79
2023/01/23 14:12:45;;;;;;;;;;;3.00;1.00;;;;;;5045024;28;19916;-78
2023/01/23 14:18:05;;;;;;;;;;;3.10;1.00;;;;;;5053739;28;19917;-79
2023/01/23 14:20:38;;;;;;;;;;;3.20;1.00;;;;;;5049225;28;19913;-81
2023/01/23 14:23:13;;;;;;;;;;;3.30;1.00;;;;;;5049310;28;19916;-79
2023/01/23 14:25:40;;;;;;;;;;;3.40;1.00;;;;;;5053087;28;19916;-78
2023/01/23 14:28:06;;;;;;;;;;;3.40;1.00;;;;;;5053951;28;19905;-78
2023/01/23 14:30:32;;;;;;;;;;;3.40;1.00;;;;;;5053180;28;20381;-78
2023/01/23 14:32:58;;;;;;;;;;;3.30;1.00;;;;;;5041059;28;20281;-79
2023/01/23 14:35:26;;;;;;;;;;;3.40;1.00;;;;;;5054333;28;20250;-79
2023/01/23 14:37:54;;;;;;;;;;;3.50;1.00;;;;;;5045178;28;19940;-78
2023/01/23 14:40:21;;;;;;;;;;;3.50;1.00;;;;;;5049865;28;19909;-78
2023/01/23 14:43:13;;;;;;;;;;;3.40;1.00;;;;;;5028746;28;19909;-77
2023/01/23 14:45:39;;;;;;;;;;;3.30;1.00;;;;;;5050627;28;19909;-80
2023/01/23 14:48:06;;;;;;;;;;;3.10;1.00;;;;;;5056930;28;19909;-78
2023/01/23 14:50:32;;;;;;;;;;;3.10;1.00;;;;;;5056408;28;20366;-79
2023/01/23 14:53:03;;;;;;;;;;;3.10;1.00;;;;;;5053639;28;20365;-77
2023/01/23 14:55:29;;;;;;;;;;;3.10;1.00;;;;;;5053022;28;20254;-76
2023/01/23 14:57:56;;;;;;;;;;;3.10;1.00;;;;;;5045259;28;19916;-76
2023/01/23 15:00:23;;;;;;;;;;;3.20;1.00;;;;;;5053180;28;19916;-76
2023/01/23 15:02:53;;;;;;;;;;;3.20;1.00;;;;;;5051886;28;19915;-78
2023/01/23 15:05:23;;;;;;;;;;;3.20;1.00;;;;;;5053062;28;19909;-79
2023/01/23 15:07:49;;;;;;;;;;;3.20;1.00;;;;;;5051917;28;19931;-78
2023/01/23 15:10:21;;;;;;;;;;;3.20;1.00;;;;;;5032992;28;19909;-79
2023/01/23 15:12:57;;;;;;;;;;;3.20;1.00;;;;;;5052184;28;19908;-80
2023/01/23 15:15:24;;;;;;;;;;;3.10;1.00;;;;;;5053085;28;19908;-79
2023/01/23 15:17:51;;;;;;;;;;;3.10;1.00;;;;;;5051739;28;19917;-78